Temp: 14.1°C   Baro: 1018.5mb
  Wind: 4.0mph   Dir: NW (314°)
  Rain: 0.0mm (0.0mm/hr)
  Solar: 251W/m2  Hum: 73%
 
Bath Spa Weather Station Historical Data
Daily Summary for June 13, 2019 Units:  Both    English   Metric
Daily Weekly Monthly Yearly Custom
  High: Low: Average:
Temperature: 56.9 °F /  13.8 °C 50 °F /  10 °C 52.8 °F /  11.6 °C
Dew Point: 53.8 °F /  12.1 °C 48 °F /  8.9 °C 50.3 °F /  10.2 °C
Humidity: 94% 85.8% 91%
Wind Speed: 10.2mph /  16.4km/h - 4.1mph /  6.6km/h
Wind Gust: 21mph /  33.8km/h - -
Wind- - WSW
Pressure: 29.74 in /  1007 hPa 29.63 in /  1003.3 hPa -
Precipitation: 0.32 in /  8.13 mm    
Historical Graphs
 
 
Tabular Data for June 13, 2019
Time Temperature Dew Point Pressure Wind Wind Speed Wind Gust Humidity Rainfall Rate (Hourly) solar
00:04 51.3 °F /  10.7 °C 49.3 °F /  9.6 °C 29.73in /  1006.7hPa NW 1.7mph /  2.7km/h 5mph /  8km/h 93% 0.04in /  1.02mm 0 W/m2
00:09 51.3 °F /  10.7 °C 49.3 °F /  9.6 °C 29.73in /  1006.7hPa WNW 1.1mph /  1.8km/h 5mph /  8km/h 93% 0.04in /  1.02mm 0 W/m2
00:14 51.3 °F /  10.7 °C 49.3 °F /  9.6 °C 29.73in /  1006.7hPa WNW 0.6mph /  1km/h 5mph /  8km/h 93% 0.04in /  1.02mm 0 W/m2
00:19 51.3 °F /  10.7 °C 49.3 °F /  9.6 °C 29.73in /  1006.7hPa WNW 1.8mph /  2.9km/h 4mph /  6.4km/h 93% 0.04in /  1.02mm 0 W/m2
00:24 51.3 °F /  10.7 °C 49.3 °F /  9.6 °C 29.73in /  1006.7hPa WNW 1.3mph /  2.1km/h 4mph /  6.4km/h 93% 0.04in /  1.02mm 0 W/m2
00:29 51.3 °F /  10.7 °C 49.3 °F /  9.6 °C 29.73in /  1006.7hPa WNW 1.8mph /  2.9km/h 6mph /  9.7km/h 93% 0.04in /  1.02mm 0 W/m2
00:34 51.1 °F /  10.6 °C 49.1 °F /  9.5 °C 29.72in /  1006.3hPa WNW 2.5mph /  4km/h 5mph /  8km/h 93% 0.04in /  1.02mm 0 W/m2
00:39 50.9 °F /  10.5 °C 48.9 °F /  9.4 °C 29.72in /  1006.3hPa WNW 1.5mph /  2.4km/h 5mph /  8km/h 93% 0.04in /  1.02mm 0 W/m2
00:44 50.9 °F /  10.5 °C 48.9 °F /  9.4 °C 29.72in /  1006.3hPa West 3mph /  4.8km/h 7mph /  11.3km/h 93% 0.04in /  1.02mm 0 W/m2
00:49 50.9 °F /  10.5 °C 48.9 °F /  9.4 °C 29.72in /  1006.3hPa West 3.9mph /  6.3km/h 7mph /  11.3km/h 93% 0.04in /  1.02mm 0 W/m2
00:54 50.9 °F /  10.5 °C 48.9 °F /  9.4 °C 29.72in /  1006.3hPa WSW 3.9mph /  6.3km/h 8mph /  12.9km/h 93% 0.04in /  1.02mm 0 W/m2
00:59 50.9 °F /  10.5 °C 48.9 °F /  9.4 °C 29.72in /  1006.3hPa WSW 2mph /  3.2km/h 8mph /  12.9km/h 93% 0.03in /  0.76mm 0 W/m2
01:04 50.8 °F /  10.4 °C 48.8 °F /  9.3 °C 29.72in /  1006.3hPa WSW 2.6mph /  4.2km/h 6mph /  9.7km/h 93% 0.03in /  0.76mm 0 W/m2
01:09 50.7 °F /  10.4 °C 48.7 °F /  9.3 °C 29.71in /  1006hPa WSW 1.9mph /  3.1km/h 5mph /  8km/h 93% 0.03in /  0.76mm 0 W/m2
01:14 50.7 °F /  10.4 °C 48.7 °F /  9.3 °C 29.71in /  1006hPa WSW 1.4mph /  2.3km/h 4mph /  6.4km/h 93% 0.02in /  0.51mm 0 W/m2
01:19 50.7 °F /  10.4 °C 48.7 °F /  9.3 °C 29.71in /  1006hPa WSW 2.6mph /  4.2km/h 5mph /  8km/h 93% 0.04in /  1.02mm 0 W/m2
01:24 50.6 °F /  10.3 °C 48.7 °F /  9.3 °C 29.71in /  1006hPa WSW 0.3mph /  0.5km/h 5mph /  8km/h 93% 0.03in /  0.76mm 0 W/m2
01:29 50.6 °F /  10.3 °C 48.7 °F /  9.3 °C 29.71in /  1006hPa WSW 2.1mph /  3.4km/h 5mph /  8km/h 93% 0.03in /  0.76mm 0 W/m2
01:34 50.5 °F /  10.3 °C 48.6 °F /  9.2 °C 29.70in /  1005.6hPa WSW 2.9mph /  4.7km/h 6mph /  9.7km/h 93% 0.04in /  1.02mm 0 W/m2
01:39 50.5 °F /  10.3 °C 48.6 °F /  9.2 °C 29.70in /  1005.6hPa WSW 1.3mph /  2.1km/h 5mph /  8km/h 93% 0.04in /  1.02mm 0 W/m2
01:44 50.5 °F /  10.3 °C 48.6 °F /  9.2 °C 29.70in /  1005.6hPa WSW 2.4mph /  3.9km/h 7mph /  11.3km/h 93% 0.03in /  0.76mm 0 W/m2
01:49 50.5 °F /  10.3 °C 48.6 °F /  9.2 °C 29.70in /  1005.6hPa WSW 3.2mph /  5.1km/h 6mph /  9.7km/h 93% 0.04in /  1.02mm 0 W/m2
01:54 50.4 °F /  10.2 °C 48.4 °F /  9.1 °C 29.70in /  1005.6hPa WSW 2.5mph /  4km/h 6mph /  9.7km/h 93% 0.04in /  1.02mm 0 W/m2
01:59 50.4 °F /  10.2 °C 48.4 °F /  9.1 °C 29.70in /  1005.6hPa WSW 3.8mph /  6.1km/h 7mph /  11.3km/h 93% 0.03in /  0.76mm 0 W/m2
02:04 50.3 °F /  10.2 °C 48.3 °F /  9.1 °C 29.70in /  1005.6hPa WSW 3.9mph /  6.3km/h 8mph /  12.9km/h 93% 0.03in /  0.76mm 0 W/m2
02:09 50.2 °F /  10.1 °C 48.2 °F /  9 °C 29.69in /  1005.3hPa WSW 2.7mph /  4.3km/h 7mph /  11.3km/h 93% 0.03in /  0.76mm 0 W/m2
02:14 50.2 °F /  10.1 °C 48.2 °F /  9 °C 29.69in /  1005.3hPa WSW 1.7mph /  2.7km/h 7mph /  11.3km/h 93% 0.04in /  1.02mm 0 W/m2
02:19 50.1 °F /  10.1 °C 48.1 °F /  8.9 °C 29.69in /  1005.3hPa WSW 2.4mph /  3.9km/h 6mph /  9.7km/h 93% 0.02in /  0.51mm 0 W/m2
02:24 50 °F /  10 °C 48 °F /  8.9 °C 29.69in /  1005.3hPa WSW 3.2mph /  5.1km/h 7mph /  11.3km/h 93% 0.02in /  0.51mm 0 W/m2
02:29 50 °F /  10 °C 48 °F /  8.9 °C 29.68in /  1005hPa WSW 3.6mph /  5.8km/h 10mph /  16.1km/h 93% 0.03in /  0.76mm 0 W/m2
02:34 50 °F /  10 °C 48 °F /  8.9 °C 29.68in /  1005hPa WSW 2.7mph /  4.3km/h 7mph /  11.3km/h 93% 0.02in /  0.51mm 0 W/m2
02:39 50 °F /  10 °C 48 °F /  8.9 °C 29.68in /  1005hPa WSW 0.9mph /  1.4km/h 7mph /  11.3km/h 93% 0.02in /  0.51mm 0 W/m2
02:44 50 °F /  10 °C 48 °F /  8.9 °C 29.68in /  1005hPa WSW 1mph /  1.6km/h 4mph /  6.4km/h 93% 0.04in /  1.02mm 0 W/m2
02:49 50 °F /  10 °C 48 °F /  8.9 °C 29.67in /  1004.6hPa WSW 2.5mph /  4km/h 6mph /  9.7km/h 93% 0.04in /  1.02mm 0 W/m2
02:54 50 °F /  10 °C 48 °F /  8.9 °C 29.67in /  1004.6hPa WSW 1.6mph /  2.6km/h 6mph /  9.7km/h 93% 0.03in /  0.76mm 0 W/m2
02:59 50 °F /  10 °C 48 °F /  8.9 °C 29.68in /  1005hPa WSW 0.5mph /  0.8km/h 4mph /  6.4km/h 93% 0.03in /  0.76mm 0 W/m2
03:04 50 °F /  10 °C 48 °F /  8.9 °C 29.67in /  1004.6hPa WSW 1mph /  1.6km/h 4mph /  6.4km/h 93% 0.04in /  1.02mm 0 W/m2
03:09 50 °F /  10 °C 48 °F /  8.9 °C 29.67in /  1004.6hPa WSW 2.6mph /  4.2km/h 5mph /  8km/h 93% 0.04in /  1.02mm 0 W/m2
03:14 50 °F /  10 °C 48 °F /  8.9 °C 29.67in /  1004.6hPa WSW 1.7mph /  2.7km/h 4mph /  6.4km/h 93% 0.03in /  0.76mm 0 W/m2
03:19 50 °F /  10 °C 48 °F /  8.9 °C 29.67in /  1004.6hPa WSW 1.4mph /  2.3km/h 4mph /  6.4km/h 93% 0.04in /  1.02mm 0 W/m2
03:24 50.1 °F /  10.1 °C 48.1 °F /  8.9 °C 29.67in /  1004.6hPa WSW 0.7mph /  1.1km/h 4mph /  6.4km/h 93% 0.04in /  1.02mm 0 W/m2
03:29 50.2 °F /  10.1 °C 48.2 °F /  9 °C 29.67in /  1004.6hPa WSW 2.1mph /  3.4km/h 5mph /  8km/h 93% 0.04in /  1.02mm 0 W/m2
03:34 50.2 °F /  10.1 °C 48.2 °F /  9 °C 29.67in /  1004.6hPa WSW 2.9mph /  4.7km/h 6mph /  9.7km/h 93% 0.04in /  1.02mm 0 W/m2
03:39 50.3 °F /  10.2 °C 48.3 °F /  9.1 °C 29.66in /  1004.3hPa WSW 4mph /  6.4km/h 7mph /  11.3km/h 93% 0.04in /  1.02mm 0 W/m2
03:44 50.4 °F /  10.2 °C 48.4 °F /  9.1 °C 29.66in /  1004.3hPa WSW 3.2mph /  5.1km/h 6mph /  9.7km/h 93% 0.03in /  0.76mm 0 W/m2
03:49 50.4 °F /  10.2 °C 48.4 °F /  9.1 °C 29.66in /  1004.3hPa WSW 3.7mph /  6km/h 8mph /  12.9km/h 93% 0.03in /  0.76mm 0 W/m2
03:54 50.4 °F /  10.2 °C 48.6 °F /  9.2 °C 29.66in /  1004.3hPa WSW 1.5mph /  2.4km/h 7mph /  11.3km/h 93.6% 0.03in /  0.76mm 0 W/m2
03:59 50.4 °F /  10.2 °C 48.7 °F /  9.3 °C 29.66in /  1004.3hPa WSW 3.3mph /  5.3km/h 10mph /  16.1km/h 94% 0.04in /  1.02mm 0 W/m2
04:04 50.4 °F /  10.2 °C 48.7 °F /  9.3 °C 29.66in /  1004.3hPa SW 3.4mph /  5.5km/h 7mph /  11.3km/h 94% 0.04in /  1.02mm 0 W/m2
04:09 50.4 °F /  10.2 °C 48.7 °F /  9.3 °C 29.66in /  1004.3hPa SW 2.8mph /  4.5km/h 6mph /  9.7km/h 94% 0.04in /  1.02mm 0 W/m2
04:14 50.4 °F /  10.2 °C 48.7 °F /  9.3 °C 29.66in /  1004.3hPa SW 2.5mph /  4km/h 6mph /  9.7km/h 94% 0.04in /  1.02mm 0 W/m2
04:19 50.4 °F /  10.2 °C 48.7 °F /  9.3 °C 29.66in /  1004.3hPa SW 3.8mph /  6.1km/h 10mph /  16.1km/h 94% 0.04in /  1.02mm 0 W/m2
04:24 50.5 °F /  10.3 °C 48.8 °F /  9.3 °C 29.65in /  1003.9hPa SW 3.2mph /  5.1km/h 7mph /  11.3km/h 94% 0.04in /  1.02mm 0 W/m2
04:29 50.5 °F /  10.3 °C 48.8 °F /  9.3 °C 29.66in /  1004.3hPa SW 2.9mph /  4.7km/h 5mph /  8km/h 94% 0.04in /  1.02mm 0 W/m2
04:34 50.5 °F /  10.3 °C 48.9 °F /  9.4 °C 29.65in /  1003.9hPa SW 2.8mph /  4.5km/h 5mph /  8km/h 94% 0.04in /  1.02mm 0 W/m2
04:39 50.5 °F /  10.3 °C 48.9 °F /  9.4 °C 29.66in /  1004.3hPa SW 2.1mph /  3.4km/h 5mph /  8km/h 94% 0.04in /  1.02mm 0 W/m2
04:44 50.5 °F /  10.3 °C 48.9 °F /  9.4 °C 29.66in /  1004.3hPa SW 1.5mph /  2.4km/h 4mph /  6.4km/h 94% 0.04in /  1.02mm 0 W/m2
04:49 50.5 °F /  10.3 °C 48.9 °F /  9.4 °C 29.65in /  1003.9hPa SW 3.1mph /  5km/h 5mph /  8km/h 94% 0.04in /  1.02mm 0 W/m2
04:54 50.5 °F /  10.3 °C 48.9 °F /  9.4 °C 29.65in /  1003.9hPa SW 3.6mph /  5.8km/h 7mph /  11.3km/h 94% 0.04in /  1.02mm 0 W/m2
04:59 50.5 °F /  10.3 °C 48.9 °F /  9.4 °C 29.66in /  1004.3hPa SW 3.9mph /  6.3km/h 8mph /  12.9km/h 94% 0.04in /  1.02mm 0 W/m2
05:04 50.5 °F /  10.3 °C 48.9 °F /  9.4 °C 29.66in /  1004.3hPa SW 3.2mph /  5.1km/h 6mph /  9.7km/h 94% 0.04in /  1.02mm 0 W/m2
05:09 50.5 °F /  10.3 °C 48.9 °F /  9.4 °C 29.65in /  1003.9hPa SW 2mph /  3.2km/h 6mph /  9.7km/h 94% 0.04in /  1.02mm 0 W/m2
05:14 50.5 °F /  10.3 °C 48.9 °F /  9.4 °C 29.65in /  1003.9hPa SW 3.3mph /  5.3km/h 6mph /  9.7km/h 94% 0.04in /  1.02mm 5 W/m2
05:19 50.5 °F /  10.3 °C 48.9 °F /  9.4 °C 29.65in /  1003.9hPa SW 3.3mph /  5.3km/h 7mph /  11.3km/h 94% 0.04in /  1.02mm 5 W/m2
05:24 50.5 °F /  10.3 °C 48.9 °F /  9.4 °C 29.65in /  1003.9hPa SW 2.4mph /  3.9km/h 7mph /  11.3km/h 94% 0.04in /  1.02mm 9 W/m2
05:29 50.5 °F /  10.3 °C 48.9 °F /  9.4 °C 29.65in /  1003.9hPa SW 3.6mph /  5.8km/h 9mph /  14.5km/h 94% 0.04in /  1.02mm 11 W/m2
05:34 50.5 °F /  10.3 °C 48.9 °F /  9.4 °C 29.65in /  1003.9hPa SW 3.4mph /  5.5km/h 9mph /  14.5km/h 94% 0.04in /  1.02mm 14 W/m2
05:39 50.4 °F /  10.2 °C 48.8 °F /  9.3 °C 29.65in /  1003.9hPa SW 4.3mph /  6.9km/h 9mph /  14.5km/h 94% 0.04in /  1.02mm 18 W/m2
05:44 50.4 °F /  10.2 °C 48.8 °F /  9.3 °C 29.65in /  1003.9hPa SW 4.1mph /  6.6km/h 9mph /  14.5km/h 94% 0.04in /  1.02mm 23 W/m2
05:49 50.4 °F /  10.2 °C 48.8 °F /  9.3 °C 29.65in /  1003.9hPa WSW 3.4mph /  5.5km/h 8mph /  12.9km/h 94% 0.04in /  1.02mm 28 W/m2
05:54 50.4 °F /  10.2 °C 48.8 °F /  9.3 °C 29.65in /  1003.9hPa WSW 2.7mph /  4.3km/h 6mph /  9.7km/h 94% 0.04in /  1.02mm 32 W/m2
05:59 50.5 °F /  10.3 °C 48.9 °F /  9.4 °C 29.65in /  1003.9hPa WSW 2.9mph /  4.7km/h 6mph /  9.7km/h 94% 0.04in /  1.02mm 30 W/m2
06:04 50.5 °F /  10.3 °C 48.9 °F /  9.4 °C 29.65in /  1003.9hPa WSW 2.8mph /  4.5km/h 6mph /  9.7km/h 94% 0.03in /  0.76mm 30 W/m2
06:09 50.5 °F /  10.3 °C 48.9 °F /  9.4 °C 29.65in /  1003.9hPa WSW 3.7mph /  6km/h 6mph /  9.7km/h 94% 0.03in /  0.76mm 35 W/m2
06:14 50.5 °F /  10.3 °C 48.9 °F /  9.4 °C 29.65in /  1003.9hPa WSW 2.3mph /  3.7km/h 6mph /  9.7km/h 94% 0.04in /  1.02mm 44 W/m2
06:19 50.5 °F /  10.3 °C 48.9 °F /  9.4 °C 29.65in /  1003.9hPa WSW 2.8mph /  4.5km/h 6mph /  9.7km/h 94% 0.04in /  1.02mm 44 W/m2
06:24 50.5 °F /  10.3 °C 48.9 °F /  9.4 °C 29.65in /  1003.9hPa WSW 3.7mph /  6km/h 7mph /  11.3km/h 94% 0.04in /  1.02mm 42 W/m2
06:29 50.5 °F /  10.3 °C 48.9 °F /  9.4 °C 29.64in /  1003.6hPa WSW 2.5mph /  4km/h 9mph /  14.5km/h 94% 0.04in /  1.02mm 40 W/m2
06:34 50.5 °F /  10.3 °C 48.9 °F /  9.4 °C 29.64in /  1003.6hPa WSW 3.2mph /  5.1km/h 9mph /  14.5km/h 94% 0.04in /  1.02mm 49 W/m2
06:39 50.6 °F /  10.3 °C 49 °F /  9.4 °C 29.64in /  1003.6hPa SW 2.8mph /  4.5km/h 7mph /  11.3km/h 94% 0.04in /  1.02mm 46 W/m2
06:44 50.6 °F /  10.3 °C 49 °F /  9.4 °C 29.64in /  1003.6hPa SW 4.9mph /  7.9km/h 10mph /  16.1km/h 94% 0.03in /  0.76mm 33 W/m2
06:49 50.6 °F /  10.3 °C 49 °F /  9.4 °C 29.64in /  1003.6hPa SW 3.5mph /  5.6km/h 8mph /  12.9km/h 94% 0.04in /  1.02mm 28 W/m2
06:54 50.5 °F /  10.3 °C 48.9 °F /  9.4 °C 29.64in /  1003.6hPa SW 3.3mph /  5.3km/h 9mph /  14.5km/h 94% 0.04in /  1.02mm 39 W/m2
06:59 50.5 °F /  10.3 °C 48.9 °F /  9.4 °C 29.64in /  1003.6hPa SW 2.9mph /  4.7km/h 6mph /  9.7km/h 94% 0.04in /  1.02mm 51 W/m2
07:04 50.5 °F /  10.3 °C 48.9 °F /  9.4 °C 29.64in /  1003.6hPa SW 5.5mph /  8.9km/h 11mph /  17.7km/h 94% 0.04in /  1.02mm 53 W/m2
07:09 50.5 °F /  10.3 °C 48.9 °F /  9.4 °C 29.64in /  1003.6hPa SW 2.6mph /  4.2km/h 11mph /  17.7km/h 94% 0.04in /  1.02mm 47 W/m2
07:14 50.6 °F /  10.3 °C 49 °F /  9.4 °C 29.64in /  1003.6hPa SW 3.6mph /  5.8km/h 12mph /  19.3km/h 94% 0.04in /  1.02mm 51 W/m2
07:19 50.7 °F /  10.4 °C 49.1 °F /  9.5 °C 29.64in /  1003.6hPa SW 4.1mph /  6.6km/h 9mph /  14.5km/h 94% 0.03in /  0.76mm 72 W/m2
07:24 50.7 °F /  10.4 °C 48.9 °F /  9.4 °C 29.63in /  1003.3hPa SW 4.5mph /  7.2km/h 11mph /  17.7km/h 93.5% 0.03in /  0.76mm 79 W/m2
07:29 50.7 °F /  10.4 °C 48.7 °F /  9.3 °C 29.63in /  1003.3hPa SW 5mph /  8km/h 11mph /  17.7km/h 93% 0.03in /  0.76mm 86 W/m2
07:34 50.8 °F /  10.4 °C 48.8 °F /  9.3 °C 29.64in /  1003.6hPa SW 4.4mph /  7.1km/h 8mph /  12.9km/h 93% 0.02in /  0.51mm 91 W/m2
07:39 50.9 °F /  10.5 °C 48.9 °F /  9.4 °C 29.63in /  1003.3hPa SW 4mph /  6.4km/h 11mph /  17.7km/h 93% 0.02in /  0.51mm 88 W/m2
07:44 50.9 °F /  10.5 °C 48.9 °F /  9.4 °C 29.64in /  1003.6hPa SW 5.3mph /  8.5km/h 9mph /  14.5km/h 93% 0.02in /  0.51mm 84 W/m2
07:49 50.9 °F /  10.5 °C 48.9 °F /  9.4 °C 29.63in /  1003.3hPa SW 3.8mph /  6.1km/h 9mph /  14.5km/h 93% 0.02in /  0.51mm 63 W/m2
07:54 50.9 °F /  10.5 °C 48.9 °F /  9.4 °C 29.63in /  1003.3hPa SW 4.9mph /  7.9km/h 10mph /  16.1km/h 93% 0.01in /  0.25mm 86 W/m2
07:59 51.1 °F /  10.6 °C 49.1 °F /  9.5 °C 29.63in /  1003.3hPa SW 2.9mph /  4.7km/h 7mph /  11.3km/h 93% 0.01in /  0.25mm 93 W/m2
08:04 51.2 °F /  10.7 °C 49.2 °F /  9.6 °C 29.63in /  1003.3hPa SW 4.2mph /  6.8km/h 8mph /  12.9km/h 93% 0.00in /  0mm 86 W/m2
08:09 51.2 °F /  10.7 °C 49.2 °F /  9.6 °C 29.63in /  1003.3hPa WSW 5.9mph /  9.5km/h 11mph /  17.7km/h 93% 0.00in /  0mm 83 W/m2
08:14 51.1 °F /  10.6 °C 49.1 °F /  9.5 °C 29.63in /  1003.3hPa SW 5.1mph /  8.2km/h 11mph /  17.7km/h 93% 0.00in /  0mm 111 W/m2
08:19 51.3 °F /  10.7 °C 49.3 °F /  9.6 °C 29.63in /  1003.3hPa SW 5.8mph /  9.3km/h 13mph /  20.9km/h 93% 0.00in /  0mm 113 W/m2
08:24 51.3 °F /  10.7 °C 49.3 °F /  9.6 °C 29.63in /  1003.3hPa WSW 3.6mph /  5.8km/h 8mph /  12.9km/h 93% 0.00in /  0mm 86 W/m2
08:29 51.3 °F /  10.7 °C 49.3 °F /  9.6 °C 29.63in /  1003.3hPa WSW 4.4mph /  7.1km/h 9mph /  14.5km/h 93% 0.00in /  0mm 81 W/m2
08:34 51.3 °F /  10.7 °C 49.3 °F /  9.6 °C 29.63in /  1003.3hPa SW 7.2mph /  11.6km/h 13mph /  20.9km/h 93% 0.00in /  0mm 69 W/m2
08:39 51.3 °F /  10.7 °C 49.3 °F /  9.6 °C 29.63in /  1003.3hPa WSW 5.5mph /  8.9km/h 13mph /  20.9km/h 93% 0.00in /  0mm 72 W/m2
08:44 51.4 °F /  10.8 °C 49.4 °F /  9.7 °C 29.63in /  1003.3hPa WSW 3.8mph /  6.1km/h 8mph /  12.9km/h 93% 0.00in /  0mm 67 W/m2
08:49 51.4 °F /  10.8 °C 49.5 °F /  9.7 °C 29.63in /  1003.3hPa WSW 6.1mph /  9.8km/h 12mph /  19.3km/h 93% 0.00in /  0mm 72 W/m2
08:54 51.4 °F /  10.8 °C 49.5 °F /  9.7 °C 29.63in /  1003.3hPa SW 5.2mph /  8.4km/h 12mph /  19.3km/h 93% 0.00in /  0mm 67 W/m2
08:59 51.4 °F /  10.8 °C 49.5 °F /  9.7 °C 29.63in /  1003.3hPa SW 4.2mph /  6.8km/h 9mph /  14.5km/h 93% 0.00in /  0mm 81 W/m2
09:04 51.5 °F /  10.8 °C 49.5 °F /  9.7 °C 29.63in /  1003.3hPa SW 7.3mph /  11.7km/h 14mph /  22.5km/h 93% 0.00in /  0mm 84 W/m2
09:09 51.6 °F /  10.9 °C 49.6 °F /  9.8 °C 29.63in /  1003.3hPa SW 4.6mph /  7.4km/h 14mph /  22.5km/h 93% 0.00in /  0mm 111 W/m2
09:14 51.8 °F /  11 °C 49.8 °F /  9.9 °C 29.63in /  1003.3hPa SW 4mph /  6.4km/h 10mph /  16.1km/h 93% 0.00in /  0mm 137 W/m2
09:19 51.8 °F /  11 °C 49.6 °F /  9.8 °C 29.63in /  1003.3hPa SW 7.2mph /  11.6km/h 12mph /  19.3km/h 92% 0.00in /  0mm 148 W/m2
09:24 52 °F /  11.1 °C 49.6 °F /  9.8 °C 29.63in /  1003.3hPa SW 5.1mph /  8.2km/h 11mph /  17.7km/h 92% 0.00in /  0mm 162 W/m2
09:29 52.2 °F /  11.2 °C 49.8 °F /  9.9 °C 29.63in /  1003.3hPa SW 5.9mph /  9.5km/h 10mph /  16.1km/h 92% 0.00in /  0mm 153 W/m2
09:34 52.3 °F /  11.3 °C 49.9 °F /  9.9 °C 29.63in /  1003.3hPa SW 3.6mph /  5.8km/h 10mph /  16.1km/h 92% 0.00in /  0mm 148 W/m2
09:39 52.4 °F /  11.3 °C 50.1 °F /  10.1 °C 29.63in /  1003.3hPa SW 3.9mph /  6.3km/h 10mph /  16.1km/h 92% 0.00in /  0mm 125 W/m2
09:44 52.4 °F /  11.3 °C 50.1 °F /  10.1 °C 29.63in /  1003.3hPa SW 6mph /  9.7km/h 12mph /  19.3km/h 92% 0.00in /  0mm 132 W/m2
09:49 52.5 °F /  11.4 °C 50.2 °F /  10.1 °C 29.63in /  1003.3hPa SW 5.8mph /  9.3km/h 10mph /  16.1km/h 92% 0.00in /  0mm 141 W/m2
09:54 52.5 °F /  11.4 °C 50.1 °F /  10.1 °C 29.63in /  1003.3hPa SW 8.7mph /  14km/h 14mph /  22.5km/h 91.6% 0.00in /  0mm 165 W/m2
09:59 52.6 °F /  11.4 °C 50.1 °F /  10.1 °C 29.63in /  1003.3hPa SW 4.4mph /  7.1km/h 11mph /  17.7km/h 91.1% 0.00in /  0mm 171 W/m2
10:04 52.9 °F /  11.6 °C 50.4 °F /  10.2 °C 29.63in /  1003.3hPa SW 2.9mph /  4.7km/h 9mph /  14.5km/h 91% 0.01in /  0.25mm 146 W/m2
10:09 53.1 °F /  11.7 °C 50.5 °F /  10.3 °C 29.63in /  1003.3hPa SSW 3.2mph /  5.1km/h 9mph /  14.5km/h 91% 0.01in /  0.25mm 158 W/m2
10:14 53.1 °F /  11.7 °C 50.6 °F /  10.3 °C 29.63in /  1003.3hPa SW 4.7mph /  7.6km/h 9mph /  14.5km/h 91% 0.01in /  0.25mm 153 W/m2
10:19 53.1 °F /  11.7 °C 50.5 °F /  10.3 °C 29.63in /  1003.3hPa SW 4.8mph /  7.7km/h 9mph /  14.5km/h 91% 0.01in /  0.25mm 172 W/m2
10:24 53.2 °F /  11.8 °C 50.7 °F /  10.4 °C 29.63in /  1003.3hPa SSW 3.2mph /  5.1km/h 9mph /  14.5km/h 91% 0.01in /  0.25mm 181 W/m2
10:29 53.3 °F /  11.8 °C 50.8 °F /  10.4 °C 29.63in /  1003.3hPa SW 4mph /  6.4km/h 9mph /  14.5km/h 91% 0.01in /  0.25mm 193 W/m2
10:34 53.3 °F /  11.8 °C 50.8 °F /  10.4 °C 29.63in /  1003.3hPa SW 5.8mph /  9.3km/h 11mph /  17.7km/h 90.8% 0.01in /  0.25mm 181 W/m2
10:39 53.4 °F /  11.9 °C 50.5 °F /  10.3 °C 29.63in /  1003.3hPa SW 4.3mph /  6.9km/h 11mph /  17.7km/h 90% 0.01in /  0.25mm 181 W/m2
10:44 53.4 °F /  11.9 °C 50.6 °F /  10.3 °C 29.63in /  1003.3hPa SW 4.2mph /  6.8km/h 11mph /  17.7km/h 90.2% 0.01in /  0.25mm 197 W/m2
10:49 53.4 °F /  11.9 °C 50.9 °F /  10.5 °C 29.63in /  1003.3hPa WSW 3.7mph /  6km/h 8mph /  12.9km/h 91% 0.01in /  0.25mm 174 W/m2
10:54 53.4 °F /  11.9 °C 50.9 °F /  10.5 °C 29.63in /  1003.3hPa WSW 3.3mph /  5.3km/h 8mph /  12.9km/h 91% 0.01in /  0.25mm 100 W/m2
10:59 53.4 °F /  11.9 °C 50.9 °F /  10.5 °C 29.63in /  1003.3hPa WSW 3.9mph /  6.3km/h 9mph /  14.5km/h 91% 0.02in /  0.51mm 79 W/m2
11:04 53.4 °F /  11.9 °C 50.9 °F /  10.5 °C 29.63in /  1003.3hPa WSW 3.4mph /  5.5km/h 9mph /  14.5km/h 91% 0.02in /  0.51mm 84 W/m2
11:09 53.4 °F /  11.9 °C 50.9 °F /  10.5 °C 29.63in /  1003.3hPa WSW 1.7mph /  2.7km/h 7mph /  11.3km/h 91% 0.02in /  0.51mm 97 W/m2
11:14 53.4 °F /  11.9 °C 50.9 °F /  10.5 °C 29.63in /  1003.3hPa WSW 1.6mph /  2.6km/h 4mph /  6.4km/h 91% 0.02in /  0.51mm 139 W/m2
11:19 53.4 °F /  11.9 °C 51 °F /  10.6 °C 29.63in /  1003.3hPa WSW 3.4mph /  5.5km/h 9mph /  14.5km/h 91.7% 0.02in /  0.51mm 160 W/m2
11:24 53.2 °F /  11.8 °C 50.8 °F /  10.4 °C 29.63in /  1003.3hPa WSW 6.2mph /  10km/h 11mph /  17.7km/h 91.3% 0.02in /  0.51mm 176 W/m2
11:29 53.1 °F /  11.7 °C 50.8 °F /  10.4 °C 29.63in /  1003.3hPa WSW 3.9mph /  6.3km/h 7mph /  11.3km/h 92% 0.02in /  0.51mm 130 W/m2
11:34 53.2 °F /  11.8 °C 50.9 °F /  10.5 °C 29.63in /  1003.3hPa SW 4.5mph /  7.2km/h 8mph /  12.9km/h 92% 0.02in /  0.51mm 174 W/m2
11:39 53.2 °F /  11.8 °C 50.9 °F /  10.5 °C 29.63in /  1003.3hPa SW 5.6mph /  9km/h 13mph /  20.9km/h 92% 0.03in /  0.76mm 230 W/m2
11:44 53.1 °F /  11.7 °C 50.7 °F /  10.4 °C 29.63in /  1003.3hPa SW 6.6mph /  10.6km/h 12mph /  19.3km/h 92% 0.03in /  0.76mm 243 W/m2
11:49 53.2 °F /  11.8 °C 50.9 °F /  10.5 °C 29.63in /  1003.3hPa WSW 4.2mph /  6.8km/h 10mph /  16.1km/h 92% 0.03in /  0.76mm 234 W/m2
11:54 53.5 °F /  11.9 °C 51.2 °F /  10.7 °C 29.63in /  1003.3hPa WSW 2.8mph /  4.5km/h 8mph /  12.9km/h 92.2% 0.03in /  0.76mm 258 W/m2
11:59 53.9 °F /  12.2 °C 51.9 °F /  11.1 °C 29.63in /  1003.3hPa WSW 2.3mph /  3.7km/h 5mph /  8km/h 93% 0.03in /  0.76mm 220 W/m2
12:04 54 °F /  12.2 °C 52 °F /  11.1 °C 29.63in /  1003.3hPa SW 4.3mph /  6.9km/h 8mph /  12.9km/h 93% 0.02in /  0.51mm 232 W/m2
12:09 53.8 °F /  12.1 °C 51.7 °F /  10.9 °C 29.63in /  1003.3hPa SW 4.8mph /  7.7km/h 9mph /  14.5km/h 92.9% 0.02in /  0.51mm 302 W/m2
12:14 54 °F /  12.2 °C 51.7 °F /  10.9 °C 29.63in /  1003.3hPa WSW 3.1mph /  5km/h 7mph /  11.3km/h 92.2% 0.02in /  0.51mm 302 W/m2
12:19 54.2 °F /  12.3 °C 51.9 °F /  11.1 °C 29.63in /  1003.3hPa WSW 5.1mph /  8.2km/h 9mph /  14.5km/h 92% 0.02in /  0.51mm 278 W/m2
12:24 54.4 °F /  12.4 °C 52.1 °F /  11.2 °C 29.63in /  1003.3hPa SW 3.3mph /  5.3km/h 9mph /  14.5km/h 92% 0.02in /  0.51mm 306 W/m2
12:29 54.8 °F /  12.7 °C 52.4 °F /  11.3 °C 29.63in /  1003.3hPa SW 2.8mph /  4.5km/h 8mph /  12.9km/h 92% 0.01in /  0.25mm 313 W/m2
12:34 54.9 °F /  12.7 °C 52.5 °F /  11.4 °C 29.63in /  1003.3hPa SW 5.5mph /  8.9km/h 11mph /  17.7km/h 92% 0.01in /  0.25mm 315 W/m2
12:39 54.6 °F /  12.6 °C 52.2 °F /  11.2 °C 29.63in /  1003.3hPa SW 5.6mph /  9km/h 11mph /  17.7km/h 91.7% 0.00in /  0mm 316 W/m2
12:44 54.8 °F /  12.7 °C 52.4 °F /  11.3 °C 29.63in /  1003.3hPa SSW 3.5mph /  5.6km/h 8mph /  12.9km/h 91.6% 0.00in /  0mm 345 W/m2
12:49 54.9 °F /  12.7 °C 52.5 °F /  11.4 °C 29.63in /  1003.3hPa SW 5.7mph /  9.2km/h 12mph /  19.3km/h 91.6% 0.00in /  0mm 362 W/m2
12:54 55 °F /  12.8 °C 52.6 °F /  11.4 °C 29.63in /  1003.3hPa SW 3.1mph /  5km/h 7mph /  11.3km/h 91.6% 0.00in /  0mm 309 W/m2
12:59 54.9 °F /  12.7 °C 52.5 °F /  11.4 °C 29.63in /  1003.3hPa SW 4.5mph /  7.2km/h 8mph /  12.9km/h 91.5% 0.00in /  0mm 274 W/m2
13:04 54.8 °F /  12.7 °C 52.3 °F /  11.3 °C 29.63in /  1003.3hPa SW 2.4mph /  3.9km/h 8mph /  12.9km/h 91% 0.00in /  0mm 202 W/m2
13:09 54.9 °F /  12.7 °C 52.6 °F /  11.4 °C 29.63in /  1003.3hPa SW 3mph /  4.8km/h 7mph /  11.3km/h 92% 0.01in /  0.25mm 265 W/m2
13:14 54.9 °F /  12.7 °C 52.4 °F /  11.3 °C 29.63in /  1003.3hPa WSW 4.5mph /  7.2km/h 9mph /  14.5km/h 91.7% 0.01in /  0.25mm 287 W/m2
13:19 55 °F /  12.8 °C 52.7 °F /  11.5 °C 29.63in /  1003.3hPa WSW 4mph /  6.4km/h 9mph /  14.5km/h 92% 0.01in /  0.25mm 267 W/m2
13:24 55 °F /  12.8 °C 52.7 °F /  11.5 °C 29.63in /  1003.3hPa WSW 5.7mph /  9.2km/h 11mph /  17.7km/h 92% 0.01in /  0.25mm 221 W/m2
13:29 55.1 °F /  12.8 °C 52.8 °F /  11.6 °C 29.63in /  1003.3hPa West 4.8mph /  7.7km/h 9mph /  14.5km/h 92% 0.02in /  0.51mm 132 W/m2
13:34 54.2 °F /  12.3 °C 51.7 °F /  10.9 °C 29.63in /  1003.3hPa WNW 5.6mph /  9km/h 10mph /  16.1km/h 91.1% 0.02in /  0.51mm 79 W/m2
13:39 53.5 °F /  11.9 °C 51 °F /  10.6 °C 29.63in /  1003.3hPa West 3.5mph /  5.6km/h 9mph /  14.5km/h 91% 0.02in /  0.51mm 221 W/m2
13:44 53.7 °F /  12.1 °C 51.3 °F /  10.7 °C 29.63in /  1003.3hPa West 3.1mph /  5km/h 9mph /  14.5km/h 91.5% 0.02in /  0.51mm 288 W/m2
13:49 54 °F /  12.2 °C 51.7 °F /  10.9 °C 29.63in /  1003.3hPa West 1mph /  1.6km/h 5mph /  8km/h 92% 0.02in /  0.51mm 464 W/m2
13:54 54.7 °F /  12.6 °C 52.3 °F /  11.3 °C 29.63in /  1003.3hPa West 0.4mph /  0.6km/h 2mph /  3.2km/h 92% 0.02in /  0.51mm 445 W/m2
13:59 54.9 °F /  12.7 °C 52.5 °F /  11.4 °C 29.63in /  1003.3hPa Calm   1mph /  1.6km/h 92% 0.02in /  0.51mm 345 W/m2
14:04 55 °F /  12.8 °C 52.7 °F /  11.5 °C 29.63in /  1003.3hPa West 0.5mph /  0.8km/h 3mph /  4.8km/h 92% 0.02in /  0.51mm 188 W/m2
14:09 55.1 °F /  12.8 °C 52.8 °F /  11.6 °C 29.63in /  1003.3hPa West 0.8mph /  1.3km/h 3mph /  4.8km/h 92% 0.01in /  0.25mm 209 W/m2
14:14 55.3 °F /  12.9 °C 53 °F /  11.7 °C 29.63in /  1003.3hPa West 2.4mph /  3.9km/h 5mph /  8km/h 92% 0.01in /  0.25mm 246 W/m2
14:19 55.6 °F /  13.1 °C 53.2 °F /  11.8 °C 29.63in /  1003.3hPa West 4mph /  6.4km/h 9mph /  14.5km/h 92% 0.01in /  0.25mm 279 W/m2
14:24 55.7 °F /  13.2 °C 53.4 °F /  11.9 °C 29.63in /  1003.3hPa WSW 3.9mph /  6.3km/h 9mph /  14.5km/h 92% 0.01in /  0.25mm 480 W/m2
14:29 56.2 °F /  13.4 °C 53.7 °F /  12.1 °C 29.63in /  1003.3hPa West 5.1mph /  8.2km/h 9mph /  14.5km/h 91.1% 0.01in /  0.25mm 482 W/m2
14:34 56.6 °F /  13.7 °C 53.8 °F /  12.1 °C 29.63in /  1003.3hPa West 5.5mph /  8.9km/h 10mph /  16.1km/h 90.1% 0.00in /  0mm 478 W/m2
14:39 56.8 °F /  13.8 °C 53.7 °F /  12.1 °C 29.63in /  1003.3hPa WNW 4.9mph /  7.9km/h 9mph /  14.5km/h 89.1% 0.00in /  0mm 334 W/m2
14:44 56.9 °F /  13.8 °C 53.3 °F /  11.8 °C 29.63in /  1003.3hPa West 6.6mph /  10.6km/h 12mph /  19.3km/h 88% 0.00in /  0mm 214 W/m2
14:49 56.8 °F /  13.8 °C 53.1 °F /  11.7 °C 29.63in /  1003.3hPa West 5.6mph /  9km/h 12mph /  19.3km/h 87% 0.00in /  0mm 213 W/m2
14:54 56.7 °F /  13.7 °C 53 °F /  11.7 °C 29.63in /  1003.3hPa WSW 7.5mph /  12.1km/h 13mph /  20.9km/h 87% 0.00in /  0mm 206 W/m2
14:59 56.5 °F /  13.6 °C 52.3 °F /  11.3 °C 29.63in /  1003.3hPa SW 7.4mph /  11.9km/h 13mph /  20.9km/h 86% 0.00in /  0mm 308 W/m2
15:04 56.3 °F /  13.5 °C 52.3 °F /  11.3 °C 29.64in /  1003.6hPa SW 5.3mph /  8.5km/h 11mph /  17.7km/h 86.2% 0.00in /  0mm 336 W/m2
15:09 56.3 °F /  13.5 °C 52.5 °F /  11.4 °C 29.64in /  1003.6hPa SW 5.3mph /  8.5km/h 11mph /  17.7km/h 87% 0.00in /  0mm 381 W/m2
15:14 56.3 °F /  13.5 °C 52.5 °F /  11.4 °C 29.64in /  1003.6hPa SW 5.3mph /  8.5km/h 12mph /  19.3km/h 87% 0.00in /  0mm 350 W/m2
15:19 56.3 °F /  13.5 °C 52.9 °F /  11.6 °C 29.64in /  1003.6hPa SW 4.3mph /  6.9km/h 8mph /  12.9km/h 88% 0.00in /  0mm 302 W/m2
15:24 56.2 °F /  13.4 °C 52.8 °F /  11.6 °C 29.64in /  1003.6hPa SW 4.9mph /  7.9km/h 9mph /  14.5km/h 88% 0.00in /  0mm 190 W/m2
15:29 55.9 °F /  13.3 °C 52.5 °F /  11.4 °C 29.64in /  1003.6hPa SW 6.3mph /  10.1km/h 11mph /  17.7km/h 88% 0.00in /  0mm 251 W/m2
15:34 55.9 °F /  13.3 °C 52.4 °F /  11.3 °C 29.64in /  1003.6hPa SW 5mph /  8km/h 11mph /  17.7km/h 88% 0.00in /  0mm 281 W/m2
15:39 55.9 °F /  13.3 °C 52.5 °F /  11.4 °C 29.64in /  1003.6hPa SW 5.4mph /  8.7km/h 9mph /  14.5km/h 88% 0.00in /  0mm 299 W/m2
15:44 56.1 °F /  13.4 °C 52.7 °F /  11.5 °C 29.64in /  1003.6hPa SW 5.4mph /  8.7km/h 9mph /  14.5km/h 88% 0.00in /  0mm 309 W/m2
15:49 56.2 °F /  13.4 °C 52.8 °F /  11.6 °C 29.64in /  1003.6hPa SW 5.4mph /  8.7km/h 10mph /  16.1km/h 88% 0.00in /  0mm 306 W/m2
15:54 56.1 °F /  13.4 °C 52.7 °F /  11.5 °C 29.64in /  1003.6hPa WSW 6.2mph /  10km/h 10mph /  16.1km/h 88% 0.00in /  0mm 338 W/m2
15:59 56.3 °F /  13.5 °C 52.8 °F /  11.6 °C 29.64in /  1003.6hPa WSW 5.3mph /  8.5km/h 10mph /  16.1km/h 87.8% 0.00in /  0mm 320 W/m2
16:04 56.5 °F /  13.6 °C 52.7 °F /  11.5 °C 29.64in /  1003.6hPa SW 5.9mph /  9.5km/h 11mph /  17.7km/h 87% 0.00in /  0mm 183 W/m2
16:09 56.3 °F /  13.5 °C 52.5 °F /  11.4 °C 29.64in /  1003.6hPa WSW 6.2mph /  10km/h 14mph /  22.5km/h 86.9% 0.00in /  0mm 120 W/m2
16:14 56 °F /  13.3 °C 52.2 °F /  11.2 °C 29.64in /  1003.6hPa WSW 7.6mph /  12.2km/h 14mph /  22.5km/h 87% 0.00in /  0mm 239 W/m2
16:19 55.8 °F /  13.2 °C 52 °F /  11.1 °C 29.64in /  1003.6hPa WSW 6.8mph /  10.9km/h 13mph /  20.9km/h 87% 0.00in /  0mm 239 W/m2
16:24 55.8 °F /  13.2 °C 51.7 °F /  10.9 °C 29.64in /  1003.6hPa WSW 6.5mph /  10.5km/h 11mph /  17.7km/h 86.3% 0.00in /  0mm 221 W/m2
16:29 55.8 °F /  13.2 °C 52 °F /  11.1 °C 29.65in /  1003.9hPa West 7.1mph /  11.4km/h 12mph /  19.3km/h 86.8% 0.00in /  0mm 181 W/m2
16:34 55.8 °F /  13.2 °C 52 °F /  11.1 °C 29.65in /  1003.9hPa West 9.8mph /  15.8km/h 21mph /  33.8km/h 87% 0.00in /  0mm 137 W/m2
16:39 54.9 °F /  12.7 °C 51.1 °F /  10.6 °C 29.65in /  1003.9hPa West 8.6mph /  13.8km/h 21mph /  33.8km/h 87% 0.00in /  0mm 146 W/m2
16:44 54.4 °F /  12.4 °C 50.8 °F /  10.4 °C 29.65in /  1003.9hPa West 5.8mph /  9.3km/h 12mph /  19.3km/h 87.6% 0.00in /  0mm 142 W/m2
16:49 53.8 °F /  12.1 °C 50.5 °F /  10.3 °C 29.65in /  1003.9hPa WNW 10.2mph /  16.4km/h 17mph /  27.4km/h 88.4% 0.01in /  0.25mm 151 W/m2
16:54 53.4 °F /  11.9 °C 50.4 °F /  10.2 °C 29.66in /  1004.3hPa West 7mph /  11.3km/h 16mph /  25.7km/h 89.6% 0.01in /  0.25mm 146 W/m2
16:59 53.4 °F /  11.9 °C 50.5 °F /  10.3 °C 29.66in /  1004.3hPa WNW 5.8mph /  9.3km/h 12mph /  19.3km/h 90% 0.01in /  0.25mm 149 W/m2
17:04 53.4 °F /  11.9 °C 50.9 °F /  10.5 °C 29.66in /  1004.3hPa WNW 6.5mph /  10.5km/h 11mph /  17.7km/h 91% 0.01in /  0.25mm 165 W/m2
17:09 53.6 °F /  12 °C 51.1 °F /  10.6 °C 29.66in /  1004.3hPa WNW 6.6mph /  10.6km/h 11mph /  17.7km/h 91% 0.01in /  0.25mm 176 W/m2
17:14 53.6 °F /  12 °C 51.3 °F /  10.7 °C 29.66in /  1004.3hPa West 7.3mph /  11.7km/h 13mph /  20.9km/h 91.8% 0.01in /  0.25mm 183 W/m2
17:19 53.9 °F /  12.2 °C 51.5 °F /  10.8 °C 29.66in /  1004.3hPa West 3.6mph /  5.8km/h 9mph /  14.5km/h 92% 0.01in /  0.25mm 163 W/m2
17:24 54.1 °F /  12.3 °C 51.7 °F /  10.9 °C 29.66in /  1004.3hPa West 5mph /  8km/h 11mph /  17.7km/h 92% 0.01in /  0.25mm 171 W/m2
17:29 54.2 °F /  12.3 °C 51.9 °F /  11.1 °C 29.66in /  1004.3hPa WNW 4.7mph /  7.6km/h 10mph /  16.1km/h 92% 0.01in /  0.25mm 174 W/m2
17:34 54.3 °F /  12.4 °C 52 °F /  11.1 °C 29.66in /  1004.3hPa West 5.3mph /  8.5km/h 11mph /  17.7km/h 92% 0.01in /  0.25mm 167 W/m2
17:39 54.5 °F /  12.5 °C 52.2 °F /  11.2 °C 29.66in /  1004.3hPa West 4.6mph /  7.4km/h 11mph /  17.7km/h 92% 0.01in /  0.25mm 167 W/m2
17:44 54.6 °F /  12.6 °C 52.2 °F /  11.2 °C 29.66in /  1004.3hPa WNW 5.6mph /  9km/h 10mph /  16.1km/h 92% 0.01in /  0.25mm 188 W/m2
17:49 54.6 °F /  12.6 °C 52.3 °F /  11.3 °C 29.66in /  1004.3hPa WNW 6.7mph /  10.8km/h 12mph /  19.3km/h 92% 0.00in /  0mm 188 W/m2
17:54 54.8 °F /  12.7 °C 52.3 °F /  11.3 °C 29.66in /  1004.3hPa West 6.2mph /  10km/h 11mph /  17.7km/h 91.1% 0.00in /  0mm 171 W/m2
17:59 54.8 °F /  12.7 °C 52.2 °F /  11.2 °C 29.66in /  1004.3hPa West 6.9mph /  11.1km/h 11mph /  17.7km/h 91% 0.00in /  0mm 165 W/m2
18:04 54.8 °F /  12.7 °C 52 °F /  11.1 °C 29.66in /  1004.3hPa West 6.1mph /  9.8km/h 10mph /  16.1km/h 90.3% 0.00in /  0mm 192 W/m2
18:09 55 °F /  12.8 °C 52.2 °F /  11.2 °C 29.67in /  1004.6hPa West 6.3mph /  10.1km/h 13mph /  20.9km/h 90% 0.00in /  0mm 185 W/m2
18:14 55 °F /  12.8 °C 52 °F /  11.1 °C 29.67in /  1004.6hPa West 6.5mph /  10.5km/h 12mph /  19.3km/h 89.4% 0.00in /  0mm 185 W/m2
18:19 55 °F /  12.8 °C 51.8 °F /  11 °C 29.67in /  1004.6hPa West 7.2mph /  11.6km/h 13mph /  20.9km/h 89% 0.00in /  0mm 167 W/m2
18:24 55 °F /  12.8 °C 51.8 °F /  11 °C 29.67in /  1004.6hPa West 6.5mph /  10.5km/h 10mph /  16.1km/h 89% 0.00in /  0mm 116 W/m2
18:29 55 °F /  12.8 °C 51.7 °F /  10.9 °C 29.67in /  1004.6hPa West 6.1mph /  9.8km/h 11mph /  17.7km/h 89% 0.00in /  0mm 130 W/m2
18:34 54.9 °F /  12.7 °C 51.6 °F /  10.9 °C 29.67in /  1004.6hPa West 8.5mph /  13.7km/h 13mph /  20.9km/h 89% 0.00in /  0mm 171 W/m2
18:39 55 °F /  12.8 °C 51.7 °F /  10.9 °C 29.67in /  1004.6hPa West 5.1mph /  8.2km/h 11mph /  17.7km/h 88.9% 0.00in /  0mm 207 W/m2
18:44 55 °F /  12.8 °C 51.6 °F /  10.9 °C 29.67in /  1004.6hPa West 5.2mph /  8.4km/h 11mph /  17.7km/h 88% 0.00in /  0mm 176 W/m2
18:49 55.2 °F /  12.9 °C 51.8 °F /  11 °C 29.68in /  1005hPa West 6mph /  9.7km/h 12mph /  19.3km/h 88% 0.00in /  0mm 130 W/m2
18:54 55.2 °F /  12.9 °C 51.8 °F /  11 °C 29.68in /  1005hPa WSW 7.6mph /  12.2km/h 13mph /  20.9km/h 88% 0.00in /  0mm 113 W/m2
18:59 55 °F /  12.8 °C 51.3 °F /  10.7 °C 29.68in /  1005hPa West 5mph /  8km/h 13mph /  20.9km/h 87% 0.00in /  0mm 100 W/m2
19:04 55.2 °F /  12.9 °C 51.4 °F /  10.8 °C 29.68in /  1005hPa West 4.1mph /  6.6km/h 9mph /  14.5km/h 87% 0.00in /  0mm 107 W/m2
19:09 55.3 °F /  12.9 °C 51.5 °F /  10.8 °C 29.69in /  1005.3hPa WSW 3.7mph /  6km/h 10mph /  16.1km/h 87% 0.00in /  0mm 139 W/m2
19:14 55.4 °F /  13 °C 51.6 °F /  10.9 °C 29.69in /  1005.3hPa West 4.3mph /  6.9km/h 8mph /  12.9km/h 87% 0.00in /  0mm 165 W/m2
19:19 55.7 °F /  13.2 °C 51.7 °F /  10.9 °C 29.69in /  1005.3hPa West 3.7mph /  6km/h 6mph /  9.7km/h 86.6% 0.00in /  0mm 285 W/m2
19:24 55.8 °F /  13.2 °C 51.7 °F /  10.9 °C 29.69in /  1005.3hPa West 5.6mph /  9km/h 9mph /  14.5km/h 86% 0.00in /  0mm 127 W/m2
19:29 55.8 °F /  13.2 °C 51.7 °F /  10.9 °C 29.69in /  1005.3hPa West 5.8mph /  9.3km/h 12mph /  19.3km/h 86% 0.00in /  0mm 107 W/m2
19:34 55.8 °F /  13.2 °C 51.6 °F /  10.9 °C 29.70in /  1005.6hPa West 4.8mph /  7.7km/h 10mph /  16.1km/h 86% 0.00in /  0mm 65 W/m2
19:39 55.5 °F /  13.1 °C 51.3 °F /  10.7 °C 29.70in /  1005.6hPa West 5.1mph /  8.2km/h 10mph /  16.1km/h 85.8% 0.00in /  0mm 37 W/m2
19:44 55.2 °F /  12.9 °C 51 °F /  10.6 °C 29.70in /  1005.6hPa West 7.3mph /  11.7km/h 16mph /  25.7km/h 85.8% 0.00in /  0mm 25 W/m2
19:49 54.9 °F /  12.7 °C 50.7 °F /  10.4 °C 29.70in /  1005.6hPa West 3.2mph /  5.1km/h 13mph /  20.9km/h 85.8% 0.00in /  0mm 26 W/m2
19:54 54.8 °F /  12.7 °C 50.6 °F /  10.3 °C 29.70in /  1005.6hPa West 7.8mph /  12.6km/h 13mph /  20.9km/h 86% 0.00in /  0mm 25 W/m2
19:59 54.5 °F /  12.5 °C 50.4 °F /  10.2 °C 29.71in /  1006hPa West 7.7mph /  12.4km/h 14mph /  22.5km/h 86% 0.00in /  0mm 28 W/m2
20:04 54.3 °F /  12.4 °C 50.2 °F /  10.1 °C 29.71in /  1006hPa West 5.4mph /  8.7km/h 10mph /  16.1km/h 86% 0.00in /  0mm 37 W/m2
20:09 54.1 °F /  12.3 °C 50 °F /  10 °C 29.71in /  1006hPa West 6.4mph /  10.3km/h 12mph /  19.3km/h 86% 0.00in /  0mm 37 W/m2
20:14 54 °F /  12.2 °C 49.9 °F /  9.9 °C 29.71in /  1006hPa West 4.9mph /  7.9km/h 12mph /  19.3km/h 86% 0.00in /  0mm 33 W/m2
20:19 54 °F /  12.2 °C 49.8 °F /  9.9 °C 29.72in /  1006.3hPa WNW 3.8mph /  6.1km/h 8mph /  12.9km/h 86% 0.00in /  0mm 33 W/m2
20:24 53.7 °F /  12.1 °C 49.6 °F /  9.8 °C 29.72in /  1006.3hPa WNW 4.1mph /  6.6km/h 9mph /  14.5km/h 86% 0.00in /  0mm 30 W/m2
20:29 53.6 °F /  12 °C 49.5 °F /  9.7 °C 29.72in /  1006.3hPa West 2.7mph /  4.3km/h 7mph /  11.3km/h 86% 0.00in /  0mm 25 W/m2
20:34 53.4 °F /  11.9 °C 49.3 °F /  9.6 °C 29.72in /  1006.3hPa West 4mph /  6.4km/h 9mph /  14.5km/h 86% 0.00in /  0mm 19 W/m2
20:39 53.4 °F /  11.9 °C 49.3 °F /  9.6 °C 29.72in /  1006.3hPa West 2.5mph /  4km/h 9mph /  14.5km/h 86% 0.00in /  0mm 18 W/m2
20:44 53.4 °F /  11.9 °C 49.3 °F /  9.6 °C 29.72in /  1006.3hPa WNW 8.6mph /  13.8km/h 15mph /  24.1km/h 86% 0.00in /  0mm 16 W/m2
20:49 53.3 °F /  11.8 °C 49.5 °F /  9.7 °C 29.72in /  1006.3hPa WNW 5.3mph /  8.5km/h 15mph /  24.1km/h 86.8% 0.00in /  0mm 16 W/m2
20:54 53.2 °F /  11.8 °C 49.2 °F /  9.6 °C 29.73in /  1006.7hPa WNW 5.6mph /  9km/h 10mph /  16.1km/h 86.4% 0.00in /  0mm 16 W/m2
20:59 53.2 °F /  11.8 °C 49.5 °F /  9.7 °C 29.73in /  1006.7hPa West 3.1mph /  5km/h 10mph /  16.1km/h 87% 0.00in /  0mm 12 W/m2
21:04 53.1 °F /  11.7 °C 49.3 °F /  9.6 °C 29.73in /  1006.7hPa West 2.4mph /  3.9km/h 10mph /  16.1km/h 87% 0.00in /  0mm 11 W/m2
21:09 53 °F /  11.7 °C 49.2 °F /  9.6 °C 29.73in /  1006.7hPa WNW 3.9mph /  6.3km/h 10mph /  16.1km/h 87% 0.00in /  0mm 9 W/m2
21:14 52.9 °F /  11.6 °C 49.1 °F /  9.5 °C 29.73in /  1006.7hPa WNW 4.2mph /  6.8km/h 9mph /  14.5km/h 87% 0.00in /  0mm 7 W/m2
21:17 52.7 °F /  11.5 °C 48.9 °F /  9.4 °C 29.73in /  1006.7hPa West 3.5mph /  5.6km/h 7mph /  11.3km/h 87% 0.00in /  0mm 0 W/m2
21:34 52.5 °F /  11.4 °C 48.7 °F /  9.3 °C 29.74in /  1007hPa West 1.6mph /  2.6km/h 4mph /  6.4km/h 87% 0.00in /  0mm 0 W/m2
21:39 52.5 °F /  11.4 °C 48.7 °F /  9.3 °C 29.74in /  1007hPa West 1.5mph /  2.4km/h 4mph /  6.4km/h 87% 0.00in /  0mm 0 W/m2
21:41 52.4 °F /  11.3 °C 48.6 °F /  9.2 °C 29.74in /  1007hPa West 1.8mph /  2.9km/h 4mph /  6.4km/h 87% 0.00in /  0mm 0 W/m2
Bath Spa Weather
Compliments of Weather Underground - 2 mb